Time;durP1;ratioP1;P1;durP2;ratioP2;P2;SDS_P1;SDS_P2;PMS_P1;PMS_P2;Temp;Humidity;BMP_temperature;BMP_pressure;BME280_temperature;BME280_humidity;BME280_pressure;Samples;Min_cycle;Max_cycle;Signal;HPM_P1;HPM_P2
2022/08/03 00:01:44;;;;;;;5.55;1.08;;;23.10;99.90;;;;;;4214221;28;20166;-93
2022/08/03 00:03:45;;;;;;;7.47;0.95;;;23.00;99.90;;;;;;4214489;28;20257;-94
2022/08/03 00:05:46;;;;;;;9.05;1.45;;;23.00;99.90;;;;;;4197501;28;20265;-94
2022/08/03 00:07:47;;;;;;;7.70;1.00;;;23.00;99.90;;;;;;4197529;28;20174;-89
2022/08/03 00:09:47;;;;;;;8.52;1.08;;;23.00;99.90;;;;;;4214302;28;20170;-89
2022/08/03 00:11:48;;;;;;;6.22;0.90;;;22.90;99.90;;;;;;4214077;28;20274;-89
2022/08/03 00:13:49;;;;;;;13.73;1.02;;;22.90;99.90;;;;;;4197717;28;20208;-95
2022/08/03 00:15:50;;;;;;;8.60;1.10;;;22.80;99.90;;;;;;4214392;28;20194;-95
2022/08/03 00:17:50;;;;;;;5.78;0.90;;;22.80;99.90;;;;;;4197634;28;20220;-95
2022/08/03 00:19:51;;;;;;;3.80;0.85;;;22.70;99.90;;;;;;4214023;28;20209;-90
2022/08/03 00:21:52;;;;;;;4.90;0.90;;;22.60;99.90;;;;;;4197254;28;20170;-89
2022/08/03 00:23:52;;;;;;;9.35;1.00;;;22.50;99.90;;;;;;4214260;28;20181;-90
2022/08/03 00:25:53;;;;;;;5.25;0.90;;;22.50;99.90;;;;;;4197607;28;20229;-89
2022/08/03 00:27:54;;;;;;;4.03;0.90;;;22.30;99.90;;;;;;4214103;28;20162;-88
2022/08/03 00:29:54;;;;;;;6.82;1.15;;;22.30;99.90;;;;;;4197527;28;20195;-90
2022/08/03 00:31:55;;;;;;;8.50;1.17;;;22.30;99.90;;;;;;4214047;28;20221;-89
2022/08/03 00:33:56;;;;;;;4.05;0.90;;;22.30;99.90;;;;;;4197370;28;20171;-88
2022/08/03 00:35:56;;;;;;;10.52;1.52;;;22.30;99.90;;;;;;4213790;28;20178;-89
2022/08/03 00:37:58;;;;;;;8.05;1.30;;;22.30;99.90;;;;;;4197315;28;20175;-89
2022/08/03 00:39:58;;;;;;;12.73;1.33;;;22.30;99.90;;;;;;4197184;28;20289;-89
2022/08/03 00:42:05;;;;;;;10.65;1.25;;;22.30;99.90;;;;;;4197136;28;20206;-93
2022/08/03 00:44:06;;;;;;;7.32;1.20;;;22.20;99.90;;;;;;4213947;28;20178;-88
2022/08/03 00:46:07;;;;;;;8.85;1.50;;;22.20;99.90;;;;;;4198516;28;20262;-89
2022/08/03 00:48:10;;;;;;;7.93;1.13;;;22.20;99.90;;;;;;4200226;28;20175;-89
2022/08/03 00:50:11;;;;;;;4.38;1.08;;;22.20;99.90;;;;;;4200136;28;20167;-94
2022/08/03 00:52:14;;;;;;;6.88;1.40;;;22.20;99.90;;;;;;4200432;28;20206;-89
2022/08/03 00:54:16;;;;;;;9.07;1.20;;;22.10;99.90;;;;;;4216824;28;20177;-94
2022/08/03 00:56:17;;;;;;;6.25;1.10;;;22.10;99.90;;;;;;4200366;28;20173;-89
2022/08/03 00:58:18;;;;;;;7.07;1.05;;;22.10;99.90;;;;;;4200116;28;20198;-91
2022/08/03 01:00:21;;;;;;;10.95;1.10;;;22.00;99.90;;;;;;4216850;28;20300;-93
2022/08/03 01:02:22;;;;;;;8.35;1.10;;;22.10;99.90;;;;;;4216961;28;20193;-89
2022/08/03 01:04:22;;;;;;;6.60;1.30;;;22.00;99.90;;;;;;4217084;28;20163;-89
2022/08/03 01:06:47;;;;;;;16.98;1.55;;;22.00;99.90;;;;;;4216798;28;20178;-89
2022/08/03 01:08:58;;;;;;;8.23;1.20;;;22.00;99.90;;;;;;4216886;28;20170;-89
2022/08/03 01:11:24;;;;;;;3.17;0.90;;;21.90;99.90;;;;;;4199997;28;20392;-90
2022/08/03 01:13:49;;;;;;;16.73;1.50;;;22.00;99.90;;;;;;4216384;28;20198;-93
2022/08/03 01:15:58;;;;;;;9.75;1.20;;;22.00;99.90;;;;;;4225816;22;20211;-84
2022/08/03 01:18:24;;;;;;;8.35;1.10;;;21.90;99.90;;;;;;4199333;28;20182;-84
2022/08/03 01:20:31;;;;;;;6.10;1.00;;;21.90;99.90;;;;;;4215917;28;20248;-84
2022/08/03 01:22:44;;;;;;;5.00;1.25;;;21.80;99.90;;;;;;4191355;28;20187;-83
2022/08/03 01:25:05;;;;;;;5.80;0.88;;;21.80;99.90;;;;;;4199048;28;20178;-84
2022/08/03 01:27:11;;;;;;;10.18;1.20;;;21.80;99.90;;;;;;4199052;28;20181;-84
2022/08/03 01:29:17;;;;;;;7.03;1.17;;;21.80;99.90;;;;;;4199180;28;20251;-85
2022/08/03 01:31:22;;;;;;;11.35;1.52;;;21.70;99.90;;;;;;4199198;28;20179;-84
2022/08/03 01:33:36;;;;;;;10.52;1.48;;;21.70;99.90;;;;;;4198834;28;20186;-87
2022/08/03 01:36:06;;;;;;;7.32;1.33;;;21.70;99.90;;;;;;4199928;28;20187;-84
2022/08/03 01:38:13;;;;;;;5.60;0.98;;;21.60;99.90;;;;;;4181204;28;20179;-83
2022/08/03 01:40:16;;;;;;;10.32;1.30;;;21.60;99.90;;;;;;4199545;28;20604;-84
2022/08/03 01:42:18;;;;;;;9.82;1.30;;;21.60;99.90;;;;;;4200022;28;20224;-84
2022/08/03 01:44:21;;;;;;;5.82;1.05;;;21.50;99.90;;;;;;4199011;28;20531;-84
2022/08/03 01:46:24;;;;;;;9.10;1.05;;;21.50;99.90;;;;;;4198789;28;20155;-84
2022/08/03 01:48:26;;;;;;;7.82;1.35;;;21.50;99.90;;;;;;4199820;28;20181;-83
2022/08/03 01:50:28;;;;;;;6.72;1.10;;;21.50;99.90;;;;;;4198518;28;20163;-84
2022/08/03 01:52:30;;;;;;;11.60;1.17;;;21.40;99.90;;;;;;4198575;28;20191;-84
2022/08/03 01:54:36;;;;;;;8.93;1.30;;;21.40;99.90;;;;;;4198774;28;20186;-84
2022/08/03 01:56:38;;;;;;;4.63;1.17;;;21.30;99.90;;;;;;4199879;28;20167;-84
2022/08/03 01:58:40;;;;;;;7.28;1.23;;;21.20;99.90;;;;;;4181295;28;20544;-84
2022/08/03 02:00:42;;;;;;;5.75;1.02;;;21.20;99.90;;;;;;4198487;28;20206;-94
2022/08/03 02:02:45;;;;;;;5.43;1.00;;;21.10;99.90;;;;;;4181865;28;20219;-88
2022/08/03 02:04:47;;;;;;;11.48;1.63;;;21.10;99.90;;;;;;4198336;28;20171;-84
2022/08/03 02:06:49;;;;;;;9.40;1.20;;;21.10;99.90;;;;;;4181814;28;20229;-83
2022/08/03 02:08:51;;;;;;;11.27;1.38;;;21.20;99.90;;;;;;4198553;28;20732;-84
2022/08/03 02:10:55;;;;;;;7.60;1.20;;;21.10;99.90;;;;;;4181944;28;20536;-84
2022/08/03 02:13:00;;;;;;;8.27;1.35;;;21.10;99.90;;;;;;4198611;28;20235;-94
2022/08/03 02:15:01;;;;;;;8.30;1.40;;;21.00;99.90;;;;;;4198242;28;20159;-84
2022/08/03 02:17:03;;;;;;;11.52;1.48;;;21.00;99.90;;;;;;4198365;28;20209;-85
2022/08/03 02:19:06;;;;;;;10.38;1.30;;;21.00;99.90;;;;;;4181815;28;20175;-83
2022/08/03 02:21:09;;;;;;;5.35;1.05;;;20.90;99.90;;;;;;4198208;28;20212;-84
2022/08/03 02:23:10;;;;;;;11.68;1.65;;;20.90;99.90;;;;;;4198210;28;20285;-84
2022/08/03 02:25:12;;;;;;;6.22;1.33;;;20.90;99.90;;;;;;4198146;28;20582;-85
2022/08/03 02:27:23;;;;;;;10.88;1.40;;;20.90;99.90;;;;;;4199276;28;20169;-84
2022/08/03 02:29:26;;;;;;;9.63;1.55;;;20.80;99.90;;;;;;4198143;28;20177;-84
2022/08/03 02:31:31;;;;;;;9.98;1.42;;;20.70;99.90;;;;;;4198024;28;20171;-84
2022/08/03 02:33:37;;;;;;;6.60;1.25;;;20.70;99.90;;;;;;4181390;28;20199;-84
2022/08/03 02:35:39;;;;;;;5.03;1.20;;;20.70;99.90;;;;;;4197792;28;20166;-84
2022/08/03 02:37:43;;;;;;;8.32;1.55;;;20.50;99.90;;;;;;4181399;28;20179;-84
2022/08/03 02:39:45;;;;;;;10.63;1.77;;;20.50;99.90;;;;;;4197827;28;20230;-84
2022/08/03 02:41:54;;;;;;;9.82;1.42;;;20.50;99.90;;;;;;4197813;28;20262;-84
2022/08/03 02:43:56;;;;;;;6.00;1.67;;;20.50;99.90;;;;;;4181338;28;20301;-84
2022/08/03 02:45:57;;;;;;;8.30;1.65;;;20.50;99.90;;;;;;4181183;28;20611;-84
2022/08/03 02:48:01;;;;;;;7.43;1.40;;;20.40;99.90;;;;;;4181248;28;20171;-84
2022/08/03 02:50:03;;;;;;;11.88;1.40;;;20.40;99.90;;;;;;4197647;28;20167;-84
2022/08/03 02:52:10;;;;;;;9.07;1.08;;;20.40;99.90;;;;;;4197794;28;20750;-84
2022/08/03 02:54:16;;;;;;;6.82;1.45;;;20.40;99.90;;;;;;4181210;28;20171;-84
2022/08/03 02:56:18;;;;;;;4.75;1.10;;;20.40;99.90;;;;;;4197673;28;20547;-83
2022/08/03 02:58:22;;;;;;;7.15;1.20;;;20.30;99.90;;;;;;4181080;28;20578;-84
2022/08/03 03:00:23;;;;;;;7.95;1.40;;;20.30;99.90;;;;;;4197665;28;20259;-89
2022/08/03 03:02:24;;;;;;;10.63;1.30;;;20.20;99.90;;;;;;4197621;28;20579;-84
2022/08/03 03:04:27;;;;;;;13.27;1.60;;;20.30;99.90;;;;;;4197814;28;20167;-84
2022/08/03 03:06:29;;;;;;;7.30;1.40;;;20.30;99.90;;;;;;4181915;28;20175;-84
2022/08/03 03:08:30;;;;;;;3.70;1.30;;;20.40;99.90;;;;;;4197592;28;20197;-84
2022/08/03 03:10:31;;;;;;;5.20;1.42;;;20.40;99.90;;;;;;4197736;28;20166;-84
2022/08/03 03:12:34;;;;;;;6.00;1.17;;;20.30;99.90;;;;;;4213964;28;20266;-84
2022/08/03 03:14:36;;;;;;;7.65;1.45;;;20.30;99.90;;;;;;4197740;28;20231;-84
2022/08/03 03:16:39;;;;;;;3.97;1.15;;;20.20;99.90;;;;;;4197198;28;20206;-84
2022/08/03 03:18:41;;;;;;;7.88;1.58;;;20.30;99.90;;;;;;4197233;28;20165;-84
2022/08/03 03:20:44;;;;;;;7.10;1.23;;;20.30;99.90;;;;;;4197201;28;20272;-84
2022/08/03 03:22:47;;;;;;;4.82;1.38;;;20.30;99.90;;;;;;4197330;28;20190;-84
2022/08/03 03:24:50;;;;;;;8.40;1.52;;;20.20;99.90;;;;;;4180767;28;20520;-84
2022/08/03 03:26:51;;;;;;;6.80;1.70;;;20.20;99.90;;;;;;4214133;28;20184;-84
2022/08/03 03:28:52;;;;;;;6.32;1.40;;;20.20;99.90;;;;;;4197460;28;20193;-84
2022/08/03 03:30:53;;;;;;;5.35;1.40;;;20.10;99.90;;;;;;4197103;28;20174;-84
2022/08/03 03:32:55;;;;;;;8.20;1.30;;;20.10;99.90;;;;;;4197875;28;20190;-95
2022/08/03 03:34:58;;;;;;;6.53;1.35;;;20.00;99.90;;;;;;4197766;28;20171;-87
2022/08/03 03:36:58;;;;;;;6.03;1.30;;;20.00;99.90;;;;;;4198043;28;20175;-85
2022/08/03 03:38:59;;;;;;;9.15;1.60;;;20.10;99.90;;;;;;4181485;28;20180;-92
2022/08/03 03:41:00;;;;;;;9.60;1.60;;;20.10;99.90;;;;;;4197700;28;20605;-94
2022/08/03 03:43:02;;;;;;;5.93;1.40;;;20.00;99.90;;;;;;4181394;28;20191;-84
2022/08/03 03:45:06;;;;;;;4.75;1.48;;;20.00;99.90;;;;;;4197194;28;20653;-84
2022/08/03 03:47:07;;;;;;;7.28;2.30;;;20.00;99.90;;;;;;4197394;28;20167;-93
2022/08/03 03:49:08;;;;;;;11.05;1.30;;;20.00;99.90;;;;;;4180683;28;20233;-94
2022/08/03 03:51:09;;;;;;;12.52;1.58;;;20.00;99.90;;;;;;4180502;28;20178;-90
2022/08/03 03:53:11;;;;;;;9.60;1.45;;;20.00;99.90;;;;;;4196898;28;20651;-84
2022/08/03 03:55:15;;;;;;;6.68;1.15;;;19.90;99.90;;;;;;4197073;28;20177;-84
2022/08/03 03:57:16;;;;;;;7.18;1.20;;;20.00;99.90;;;;;;4197140;28;20274;-84
2022/08/03 03:59:16;;;;;;;10.82;1.85;;;19.90;99.90;;;;;;4197553;28;20170;-91
2022/08/03 04:01:18;;;;;;;7.35;1.90;;;19.90;99.90;;;;;;4180343;28;20215;-84
2022/08/03 04:03:19;;;;;;;9.63;1.50;;;19.80;99.90;;;;;;4180479;28;20190;-84
2022/08/03 04:12:47;;;;;;;5.88;1.20;;;19.80;99.90;;;;;;4197277;28;20194;-94
2022/08/03 04:14:49;;;;;;;8.88;1.63;;;19.80;99.90;;;;;;4197271;28;20182;-84
2022/08/03 04:16:58;;;;;;;6.00;1.50;;;19.80;99.90;;;;;;4197163;28;20190;-94
2022/08/03 04:19:08;;;;;;;11.70;1.70;;;19.90;99.90;;;;;;4197426;28;20201;-84
2022/08/03 04:21:12;;;;;;;7.45;1.38;;;19.90;99.90;;;;;;4198843;28;20240;-95
2022/08/03 04:23:14;;;;;;;8.57;1.35;;;19.90;99.90;;;;;;4200508;28;20194;-95
2022/08/03 04:25:18;;;;;;;7.47;1.27;;;19.90;99.90;;;;;;4184046;28;20179;-96
2022/08/03 04:27:24;;;;;;;6.10;1.33;;;19.90;99.90;;;;;;4200949;28;20687;-95
2022/08/03 04:29:25;;;;;;;7.88;1.23;;;19.90;99.90;;;;;;4200447;28;20185;-94
2022/08/03 04:31:27;;;;;;;7.45;1.60;;;19.90;99.90;;;;;;4183804;28;20586;-84
2022/08/03 04:33:30;;;;;;;5.78;1.58;;;20.00;99.90;;;;;;4200415;28;20698;-90
2022/08/03 04:35:33;;;;;;;7.93;1.50;;;20.00;99.90;;;;;;4183788;28;20172;-84
2022/08/03 04:37:38;;;;;;;9.88;1.70;;;20.00;99.90;;;;;;4200149;28;20217;-93
2022/08/03 04:39:41;;;;;;;11.52;1.60;;;20.00;99.90;;;;;;4199853;28;20899;-94
2022/08/03 04:41:44;;;;;;;11.05;2.33;;;19.90;99.90;;;;;;4200241;28;20202;-94
2022/08/03 04:43:46;;;;;;;7.55;1.73;;;19.90;99.90;;;;;;4183543;28;20202;-92
2022/08/03 04:45:50;;;;;;;12.25;1.73;;;19.90;99.90;;;;;;4200128;28;20248;-85
2022/08/03 04:47:51;;;;;;;14.98;1.60;;;19.90;99.90;;;;;;4200271;28;20662;-95
2022/08/03 04:49:52;;;;;;;7.78;1.67;;;19.90;99.90;;;;;;4200146;28;20536;-95
2022/08/03 04:51:53;;;;;;;9.02;1.50;;;19.80;99.90;;;;;;4200815;28;20253;-90
2022/08/03 04:53:54;;;;;;;5.47;1.60;;;19.80;99.90;;;;;;4200445;28;20672;-93
2022/08/03 04:55:54;;;;;;;11.05;1.70;;;19.90;99.90;;;;;;4200210;28;20163;-85
2022/08/03 04:57:57;;;;;;;6.45;1.60;;;20.00;99.90;;;;;;4199907;28;20186;-84
2022/08/03 04:59:57;;;;;;;7.15;1.55;;;20.10;99.90;;;;;;4199627;28;20237;-93
2022/08/03 05:01:58;;;;;;;8.30;1.20;;;20.10;99.90;;;;;;4216760;28;20197;-91
2022/08/03 05:03:59;;;;;;;9.27;1.52;;;20.20;99.90;;;;;;4183717;28;20164;-95
2022/08/03 05:05:59;;;;;;;11.65;1.90;;;20.30;99.90;;;;;;4183271;28;20168;-88
2022/08/03 05:08:00;;;;;;;9.75;1.80;;;20.30;99.90;;;;;;4183271;28;20176;-94
2022/08/03 05:10:01;;;;;;;7.38;1.50;;;20.50;99.90;;;;;;4183294;28;20187;-96
2022/08/03 05:12:02;;;;;;;9.88;1.50;;;20.50;99.90;;;;;;4199914;28;20183;-95
2022/08/03 05:14:02;;;;;;;11.90;1.60;;;20.60;99.90;;;;;;4199892;28;20197;-86
2022/08/03 05:16:04;;;;;;;11.57;1.70;;;20.60;99.90;;;;;;4183067;28;20190;-93
2022/08/03 05:18:05;;;;;;;15.70;1.80;;;20.60;99.90;;;;;;4183402;28;20168;-92
2022/08/03 05:20:06;;;;;;;6.93;1.52;;;20.70;99.90;;;;;;4183433;28;20290;-94
2022/08/03 05:22:06;;;;;;;12.43;1.85;;;20.70;99.90;;;;;;4200049;28;20191;-91
2022/08/03 05:24:07;;;;;;;6.68;1.50;;;20.70;99.90;;;;;;4186006;28;20175;-92
2022/08/03 05:26:10;;;;;;;7.65;1.58;;;20.70;99.90;;;;;;4191145;28;20184;-85
2022/08/03 05:28:11;;;;;;;5.85;1.73;;;20.70;99.90;;;;;;4210506;28;20163;-86
2022/08/03 05:30:12;;;;;;;6.93;1.77;;;20.80;99.90;;;;;;4206635;28;20171;-85
2022/08/03 05:32:13;;;;;;;9.55;1.48;;;20.80;99.90;;;;;;4204232;28;20551;-93
2022/08/03 05:34:13;;;;;;;10.52;1.80;;;20.80;99.90;;;;;;4222228;28;20232;-96
2022/08/03 05:36:14;;;;;;;11.18;2.17;;;20.90;99.90;;;;;;4204830;28;20284;-86
2022/08/03 05:38:15;;;;;;;9.25;1.65;;;21.00;99.90;;;;;;4206194;28;20175;-86
2022/08/03 05:40:16;;;;;;;8.13;1.67;;;21.00;99.90;;;;;;4206549;28;20203;-85
2022/08/03 05:42:18;;;;;;;11.23;2.15;;;21.10;99.90;;;;;;4220615;28;20213;-89
2022/08/03 05:44:19;;;;;;;11.40;1.77;;;21.10;99.90;;;;;;4207384;28;20179;-92
2022/08/03 05:46:21;;;;;;;7.82;1.90;;;21.20;99.90;;;;;;4204686;28;20198;-93
2022/08/03 05:48:22;;;;;;;5.90;1.73;;;21.20;99.90;;;;;;4171100;28;20202;-85
2022/08/03 05:50:23;;;;;;;9.60;1.50;;;21.30;99.90;;;;;;4204878;28;20195;-93
2022/08/03 05:52:23;;;;;;;10.52;2.00;;;21.30;99.90;;;;;;4186600;28;20214;-87
2022/08/03 05:54:24;;;;;;;8.00;1.60;;;21.40;99.90;;;;;;4208360;28;20182;-86
2022/08/03 05:56:25;;;;;;;4.28;1.58;;;21.40;99.90;;;;;;4204783;28;20174;-86
2022/08/03 05:58:27;;;;;;;10.90;1.70;;;21.50;99.90;;;;;;4203931;28;20555;-95
2022/08/03 06:00:27;;;;;;;9.20;1.50;;;21.60;99.90;;;;;;4190583;28;20208;-95
2022/08/03 06:02:28;;;;;;;5.85;1.52;;;21.60;99.90;;;;;;4207698;28;20194;-85
2022/08/03 06:04:29;;;;;;;10.52;1.60;;;21.70;99.90;;;;;;4205455;28;20174;-86
2022/08/03 06:06:29;;;;;;;11.35;1.75;;;21.70;99.90;;;;;;4207003;28;20206;-85
2022/08/03 06:08:30;;;;;;;8.73;1.58;;;21.70;99.90;;;;;;4211168;28;20179;-91
2022/08/03 06:10:31;;;;;;;7.82;1.40;;;21.80;99.90;;;;;;4190523;28;20258;-84
2022/08/03 06:12:35;;;;;;;6.90;1.83;;;22.00;99.90;;;;;;4209230;28;20289;-96
2022/08/03 06:14:37;;;;;;;8.18;1.70;;;22.00;99.90;;;;;;4211008;28;20186;-92
2022/08/03 06:16:38;;;;;;;10.65;1.88;;;21.90;99.90;;;;;;4204832;28;20206;-85
2022/08/03 06:18:40;;;;;;;7.75;1.80;;;22.00;99.90;;;;;;4190632;28;20186;-95
2022/08/03 06:20:40;;;;;;;12.98;1.90;;;21.90;99.90;;;;;;4206930;28;20273;-85
2022/08/03 06:22:41;;;;;;;4.65;1.42;;;21.70;99.90;;;;;;4210261;28;20187;-85
2022/08/03 06:24:43;;;;;;;11.80;1.80;;;21.60;99.90;;;;;;4224963;28;20174;-90
2022/08/03 06:26:50;;;;;;;11.50;1.95;;;21.50;99.90;;;;;;4190673;28;20221;-92
2022/08/03 06:28:51;;;;;;;8.77;1.67;;;21.50;99.90;;;;;;4204560;28;20209;-92
2022/08/03 06:30:52;;;;;;;9.38;1.20;;;21.60;99.90;;;;;;4190244;28;20175;-86
2022/08/03 06:33:00;;;;;;;13.35;1.70;;;21.90;99.90;;;;;;4212020;28;20195;-92
2022/08/03 06:35:06;;;;;;;5.47;1.20;;;22.00;99.90;;;;;;4190435;28;20247;-88
2022/08/03 06:37:06;;;;;;;8.93;1.58;;;22.10;99.90;;;;;;4189932;28;20168;-96
2022/08/03 06:39:08;;;;;;;6.28;1.38;;;22.30;99.90;;;;;;4192089;28;20266;-89
2022/08/03 06:41:08;;;;;;;9.55;1.20;;;22.40;99.90;;;;;;4206927;28;20214;-85
2022/08/03 06:43:09;;;;;;;3.78;1.23;;;22.40;99.90;;;;;;4191219;28;20560;-96
2022/08/03 06:45:11;;;;;;;7.53;1.27;;;22.40;99.90;;;;;;4208179;28;20175;-94
2022/08/03 06:47:12;;;;;;;4.63;1.13;;;22.40;99.90;;;;;;4205844;28;20190;-86
2022/08/03 06:49:15;;;;;;;5.43;1.52;;;22.60;99.90;;;;;;4206066;28;20193;-88
2022/08/03 06:51:15;;;;;;;7.00;1.25;;;22.70;99.90;;;;;;4205176;28;20212;-85
2022/08/03 06:53:16;;;;;;;7.78;1.08;;;23.00;99.90;;;;;;4192567;28;20242;-90
2022/08/03 06:55:17;;;;;;;7.38;1.52;;;23.10;99.90;;;;;;4192732;28;20177;-85
2022/08/03 06:57:30;;;;;;;9.18;1.30;;;23.10;99.90;;;;;;4211621;28;20166;-86
2022/08/03 06:59:31;;;;;;;9.55;1.30;;;23.20;99.90;;;;;;4177948;28;20152;-94
2022/08/03 07:01:31;;;;;;;11.05;1.42;;;23.20;99.90;;;;;;4228118;28;20184;-85
2022/08/03 07:03:32;;;;;;;5.85;1.23;;;23.30;99.90;;;;;;4208686;28;20218;-94
2022/08/03 07:05:34;;;;;;;5.88;1.42;;;23.30;99.90;;;;;;4207617;28;20201;-90
2022/08/03 07:07:35;;;;;;;12.75;1.40;;;23.50;99.90;;;;;;4225487;28;20170;-86
2022/08/03 07:09:37;;;;;;;8.57;1.42;;;23.60;99.90;;;;;;4211009;28;20183;-86
2022/08/03 07:11:45;;;;;;;10.57;1.30;;;23.60;99.90;;;;;;4209338;28;20162;-85
2022/08/03 07:13:47;;;;;;;5.65;1.10;;;23.60;99.90;;;;;;4193090;28;20197;-86
2022/08/03 07:15:51;;;;;;;11.77;1.33;;;23.50;99.90;;;;;;4209884;28;20658;-86
2022/08/03 07:17:51;;;;;;;6.95;1.30;;;23.60;99.90;;;;;;4208850;28;20171;-87
2022/08/03 07:20:18;;;;;;;7.40;1.20;;;24.30;99.90;;;;;;4189921;28;20211;-85
2022/08/03 07:22:22;;;;;;;7.03;1.10;;;26.00;99.90;;;;;;4215410;28;20213;-86
2022/08/03 07:24:26;;;;;;;9.95;1.40;;;28.10;99.90;;;;;;4214328;28;20187;-90
2022/08/03 07:26:26;;;;;;;10.68;1.02;;;30.20;99.90;;;;;;4194363;28;20175;-86
2022/08/03 07:28:34;;;;;;;4.75;1.20;;;31.80;99.90;;;;;;4225919;28;20158;-85
2022/08/03 07:30:35;;;;;;;10.48;1.25;;;32.90;99.90;;;;;;4207438;28;20627;-85
2022/08/03 07:32:37;;;;;;;5.80;1.30;;;34.30;99.90;;;;;;4210374;28;20194;-87
2022/08/03 07:34:53;;;;;;;8.23;1.10;;;35.00;99.90;;;;;;4232664;28;20205;-86
2022/08/03 07:36:55;;;;;;;14.93;2.80;;;35.90;99.90;;;;;;4214363;28;20170;-85
2022/08/03 07:38:57;;;;;;;11.35;1.30;;;36.70;99.90;;;;;;4210609;28;20170;-86
2022/08/03 07:40:57;;;;;;;9.13;2.20;;;36.70;99.90;;;;;;4193370;28;20210;-85
2022/08/03 07:43:14;;;;;;;7.85;1.10;;;37.00;99.90;;;;;;4197756;28;20195;-86
2022/08/03 07:45:15;;;;;;;8.02;1.10;;;37.30;99.90;;;;;;4190757;28;20233;-86
2022/08/03 07:47:35;;;;;;;6.70;1.30;;;36.80;99.90;;;;;;4212282;28;20170;-87
2022/08/03 07:49:42;;;;;;;4.25;1.00;;;36.80;99.90;;;;;;4212596;28;20177;-85
2022/08/03 07:52:46;;;;;;;4.75;1.17;;;37.60;99.90;;;;;;4207179;28;20177;-85
2022/08/03 07:54:11;;;;;;;8.80;1.10;;;38.50;99.90;;;;;;4208261;28;20593;-91
2022/08/03 07:56:18;;;;;;;7.43;1.20;;;39.20;99.90;;;;;;4210442;28;20258;-86
2022/08/03 07:58:20;;;;;;;12.43;1.50;;;39.50;99.90;;;;;;4213938;28;20316;-88
2022/08/03 08:00:20;;;;;;;10.07;1.40;;;39.20;99.90;;;;;;4215315;28;20214;-86
2022/08/03 08:02:21;;;;;;;10.63;1.40;;;39.20;99.90;;;;;;4194388;28;20225;-87
2022/08/03 08:04:21;;;;;;;7.72;1.27;;;39.10;99.90;;;;;;4207435;28;20177;-87
2022/08/03 08:06:23;;;;;;;7.88;1.52;;;39.20;99.90;;;;;;4210967;28;20191;-87
2022/08/03 08:08:39;;;;;;;9.38;1.30;;;39.50;99.90;;;;;;4196985;28;20216;-88
2022/08/03 08:10:54;;;;;;;5.75;1.40;;;39.20;99.90;;;;;;4212926;28;20155;-88
2022/08/03 08:13:06;;;;;;;12.43;1.40;;;39.70;99.90;;;;;;4215239;28;20229;-88
2022/08/03 08:15:39;;;;;;;7.00;1.02;;;39.20;99.90;;;;;;4198095;28;20173;-88
2022/08/03 08:18:17;;;;;;;9.43;1.45;;;39.20;99.90;;;;;;4216427;28;20233;-92
2022/08/03 08:20:38;;;;;;;6.22;1.20;;;39.30;99.90;;;;;;4197206;28;20215;-90
2022/08/03 08:22:39;;;;;;;9.50;1.48;;;38.60;99.90;;;;;;4196695;28;20247;-93
2022/08/03 08:24:43;;;;;;;9.35;1.35;;;38.10;99.90;;;;;;4197663;28;20163;-94
2022/08/03 08:26:46;;;;;;;6.22;1.33;;;38.00;99.90;;;;;;4214968;28;20159;-89
2022/08/03 08:28:46;;;;;;;10.35;1.15;;;39.00;99.90;;;;;;4198216;28;20171;-90
2022/08/03 08:31:09;;;;;;;12.75;1.48;;;39.70;99.90;;;;;;4213468;28;20571;-90
2022/08/03 08:33:39;;;;;;;8.57;1.38;;;39.80;99.90;;;;;;4196919;28;20228;-91
2022/08/03 08:35:40;;;;;;;7.90;1.42;;;39.10;99.90;;;;;;4212063;28;20269;-92
2022/08/03 08:37:47;;;;;;;11.52;1.38;;;39.20;99.90;;;;;;4213982;28;20235;-90
2022/08/03 08:39:48;;;;;;;6.53;1.33;;;38.80;99.90;;;;;;4211585;28;20184;-90
2022/08/03 08:41:54;;;;;;;11.65;1.52;;;38.30;99.90;;;;;;4196842;28;20175;-89
2022/08/03 08:43:55;;;;;;;11.70;1.70;;;38.50;99.90;;;;;;4231097;28;20169;-89
2022/08/03 08:46:21;;;;;;;5.75;1.30;;;38.70;99.90;;;;;;4213531;28;20209;-89
2022/08/03 08:49:05;;;;;;;7.07;1.42;;;39.20;99.90;;;;;;4214169;28;20222;-89
2022/08/03 08:51:11;;;;;;;16.52;1.52;;;39.00;99.90;;;;;;4209285;28;20190;-90
2022/08/03 08:53:17;;;;;;;11.07;1.67;;;38.50;99.90;;;;;;4214041;28;20217;-90
2022/08/03 08:55:21;;;;;;;10.05;1.35;;;38.40;99.90;;;;;;4232161;28;20157;-89
2022/08/03 08:57:48;;;;;;;13.98;1.50;;;38.80;99.90;;;;;;4213035;28;20158;-91
2022/08/03 08:59:49;;;;;;;11.60;2.08;;;39.20;99.90;;;;;;4212666;28;20178;-91
2022/08/03 09:01:50;;;;;;;8.70;1.38;;;39.70;99.90;;;;;;4210772;28;20178;-88
2022/08/03 09:03:52;;;;;;;9.90;1.33;;;40.00;99.90;;;;;;4195529;28;20186;-90
2022/08/03 09:05:54;;;;;;;9.05;1.58;;;40.00;99.90;;;;;;4214825;28;20186;-93
2022/08/03 09:07:56;;;;;;;13.90;1.48;;;39.60;99.90;;;;;;4199775;28;20168;-91
2022/08/03 09:10:20;;;;;;;7.38;1.42;;;39.40;99.90;;;;;;4217011;28;20185;-90
2022/08/03 09:12:22;;;;;;;11.98;1.90;;;39.80;99.90;;;;;;4215693;28;20183;-95
2022/08/03 09:14:48;;;;;;;7.43;1.70;;;39.90;99.90;;;;;;4197344;28;20159;-92
2022/08/03 09:17:10;;;;;;;7.68;1.27;;;39.50;99.90;;;;;;4200844;28;20194;-96
2022/08/03 09:19:14;;;;;;;7.80;1.75;;;39.20;99.90;;;;;;4233117;28;20174;-91
2022/08/03 09:21:22;;;;;;;6.95;1.08;;;38.60;99.90;;;;;;4218072;28;20309;-91
2022/08/03 09:23:23;;;;;;;10.95;1.40;;;38.20;99.90;;;;;;4213582;28;20213;-92
2022/08/03 09:25:44;;;;;;;7.07;0.93;;;38.70;99.90;;;;;;4217716;28;20174;-92
2022/08/03 09:27:45;;;;;;;9.50;1.80;;;39.40;99.90;;;;;;4182588;28;20176;-92
2022/08/03 09:29:52;;;;;;;9.70;1.52;;;39.20;99.90;;;;;;4216450;28;20208;-93
2022/08/03 09:32:02;;;;;;;7.65;1.13;;;38.90;99.90;;;;;;4199416;28;20185;-91
2022/08/03 09:34:11;;;;;;;5.97;1.40;;;39.10;99.90;;;;;;4198768;28;20265;-91
2022/08/03 09:36:42;;;;;;;13.75;1.38;;;39.20;99.90;;;;;;4214757;28;20146;-91
2022/08/03 09:39:05;;;;;;;10.02;1.52;;;39.60;99.90;;;;;;4216679;28;20167;-89
2022/08/03 09:41:17;;;;;;;7.35;1.20;;;40.00;99.90;;;;;;4182406;28;20211;-91
2022/08/03 09:43:18;;;;;;;10.10;1.30;;;39.60;99.90;;;;;;4198794;28;20227;-94
2022/08/03 09:45:28;;;;;;;8.52;1.20;;;38.60;99.90;;;;;;4199225;28;20167;-92
2022/08/03 09:47:32;;;;;;;8.93;1.20;;;38.10;99.90;;;;;;4215001;28;20623;-95
2022/08/03 09:49:34;;;;;;;8.20;1.25;;;37.60;99.90;;;;;;4211845;28;20205;-96
2022/08/03 09:51:37;;;;;;;5.97;1.13;;;37.70;99.90;;;;;;4212248;28;20193;-96
2022/08/03 09:53:45;;;;;;;6.40;1.23;;;37.70;99.90;;;;;;4214254;28;20198;-90
2022/08/03 09:56:01;;;;;;;11.63;1.10;;;38.30;99.90;;;;;;4213262;28;20162;-91
2022/08/03 09:58:07;;;;;;;7.65;1.40;;;38.70;99.90;;;;;;4214986;28;20178;-94
2022/08/03 10:00:17;;;;;;;4.22;1.05;;;38.90;99.90;;;;;;4230921;28;20209;-91
2022/08/03 10:02:22;;;;;;;7.78;0.93;;;38.80;99.90;;;;;;4181154;28;20205;-92
2022/08/03 10:04:24;;;;;;;6.35;1.02;;;39.30;99.90;;;;;;4214518;28;20167;-95
2022/08/03 10:06:28;;;;;;;10.88;1.10;;;39.20;99.90;;;;;;4215683;28;20173;-90
2022/08/03 10:08:39;;;;;;;7.63;1.10;;;39.50;99.90;;;;;;4232578;28;20180;-95
2022/08/03 10:10:48;;;;;;;7.10;0.85;;;39.70;99.90;;;;;;4199725;28;20190;-92
2022/08/03 10:12:50;;;;;;;7.82;1.10;;;39.20;99.90;;;;;;4214297;28;20202;-91
2022/08/03 10:14:56;;;;;;;5.00;1.10;;;39.70;99.90;;;;;;4183482;28;20200;-94
2022/08/03 10:16:58;;;;;;;6.72;1.30;;;40.20;99.90;;;;;;4215997;28;20257;-96
2022/08/03 10:18:59;;;;;;;5.03;1.40;;;40.70;99.90;;;;;;4215367;28;20167;-92
2022/08/03 10:21:16;;;;;;;11.65;1.20;;;39.80;99.90;;;;;;4196545;28;20206;-94
2022/08/03 10:23:20;;;;;;;5.90;1.23;;;38.80;99.90;;;;;;4213393;28;20182;-95
2022/08/03 10:25:55;;;;;;;7.15;1.20;;;38.20;99.90;;;;;;4216468;28;20154;-92
2022/08/03 10:28:04;;;;;;;6.80;1.38;;;37.80;99.90;;;;;;4232449;28;20164;-91
2022/08/03 10:30:10;;;;;;;4.00;0.80;;;36.80;99.90;;;;;;4214805;28;20170;-92
2022/08/03 10:32:24;;;;;;;12.45;1.10;;;36.10;99.90;;;;;;4207131;28;20203;-95
2022/08/03 10:34:27;;;;;;;6.57;0.80;;;35.90;99.90;;;;;;4210668;28;20220;-92
2022/08/03 10:36:32;;;;;;;6.57;0.90;;;35.40;99.90;;;;;;4197410;28;20179;-91
2022/08/03 10:38:39;;;;;;;7.97;1.10;;;34.90;99.90;;;;;;4211396;28;20177;-95
2022/08/03 10:40:40;;;;;;;5.20;1.08;;;34.80;99.90;;;;;;4191396;28;20245;-91
2022/08/03 10:42:44;;;;;;;6.93;0.90;;;34.40;99.90;;;;;;4211643;28;20191;-91
2022/08/03 10:44:46;;;;;;;6.50;1.02;;;34.30;99.90;;;;;;4212354;28;20181;-91
2022/08/03 10:46:49;;;;;;;4.47;1.02;;;33.80;99.90;;;;;;4212482;28;20178;-94
2022/08/03 10:48:51;;;;;;;5.53;0.90;;;33.30;99.90;;;;;;4211082;28;20163;-92
2022/08/03 10:50:52;;;;;;;3.90;0.45;;;33.20;99.90;;;;;;4188087;28;20246;-89
2022/08/03 10:52:56;;;;;;;6.32;1.30;;;33.70;99.90;;;;;;4204146;28;20202;-91
2022/08/03 10:57:42;;;;;;;3.70;0.85;;;33.80;99.90;;;;;;4206439;28;20197;-90